This is the latest recevied weather packets stored in our database for station/object KQ4OSL. If no packets are shown the sender has not sent any weather packets the latest 10 day(s).
| Time | Temp. | Humidity | Pressure | Rain* | Wind** | Luminosity | Snow |
|---|---|---|---|---|---|---|---|
| 1787699382 | 29.44° C | 57% | 1017.8 hPa | 0 mm | - | 26 W/m² | - |
| 1787699077 | 29.44° C | 57% | 1017.9 hPa | 0 mm | - | 27 W/m² | - |
| 1787698772 | 30° C | 54% | 1018 hPa | 0 mm | - | 28 W/m² | - |
| 1787698469 | 30° C | 54% | 1018.2 hPa | 0 mm | - | 61 W/m² | - |
| 1787698164 | 30° C | 54% | 1018.1 hPa | 0 mm | - | 57 W/m² | - |
| 1787697859 | 30° C | 54% | 1017.9 hPa | 0 mm | - | 57 W/m² | - |
| 1787697554 | 30° C | 54% | 1017.9 hPa | 0 mm | - | 39 W/m² | - |
| 1787697250 | 30° C | 53% | 1017.9 hPa | 0 mm | - | 46 W/m² | - |
| 1787696945 | 30° C | 53% | 1018.2 hPa | 0 mm | - | 53 W/m² | - |
| 1787696641 | 30.56° C | 54% | 1017.9 hPa | 0 mm | - | 72 W/m² | - |
| 1787696336 | 30.56° C | 55% | 1018 hPa | 0 mm | - | 41 W/m² | - |
| 1787696031 | 30.56° C | 52% | 1018.1 hPa | 0 mm | - | 71 W/m² | - |
| 1787695731 | 30.56° C | 53% | 1018.1 hPa | 0 mm | - | 46 W/m² | - |
| 1787695428 | 31.11° C | 50% | 1017.9 hPa | 0 mm | - | 178 W/m² | - |
| 1787695128 | 30.56° C | 51% | 1017.9 hPa | 0 mm | - | 92 W/m² | - |
| 1787694826 | 31.11° C | 50% | 1018 hPa | 0 mm | - | 54 W/m² | - |
| 1787694523 | 31.67° C | 50% | 1018.2 hPa | 0 mm | - | 140 W/m² | - |
| 1787694222 | 31.67° C | 47% | 1017.9 hPa | 0 mm | - | 245 W/m² | - |
| 1787693918 | 31.67° C | 48% | 1018 hPa | 0 mm | - | 259 W/m² | - |
| 1787693613 | 31.67° C | 47% | 1018 hPa | 0 mm | - | 275 W/m² | - |
| 1787693310 | 32.22° C | 45% | 1018 hPa | 0 mm | - | 294 W/m² | - |
| 1787693005 | 32.22° C | 44% | 1018 hPa | 0 mm | - | 306 W/m² | - |
| 1787692701 | 31.67° C | 48% | 1018.1 hPa | 0 mm | - | 319 W/m² | - |
| 1787692396 | 31.67° C | 47% | 1018.1 hPa | 0 mm | - | 336 W/m² | - |
| 1787692096 | 31.67° C | 46% | 1018.1 hPa | 0 mm | - | 355 W/m² | - |
* Rain latest hour (hover to see other rain measurements)
** Current wind speed in m/s (hover to see current wind gust speed)